Wallace, Nebraska
Current Conditions -  °F | °C
As of 4:53 PM on Friday 28 Nov 2014 (Local Time) from KLBF Reporting Station
Clear Clear  
Wind Chill: 58°   Ceiling: Unl
Heat Index: 58°   Visibility: 10mi
Dew Point: 21°   Wind: 7mph
Humidity: 24%   Direction: 250°WSW
Pressure: 29.7"   Gusts: NA
Location:  40.84°N, 101.16°W
Report Text: KLBF 282253Z AUTO 25006KT 10SM CLR 14/M06 A2970 RMK AO2 SLP068 T01441061
Loading
Personal Weather Stations






























Interactive Weather Map New forecast layout! Learn more

10-Day Weather Forecast

Advertisements
Track Severe Weather on mobile